createdAt,value
2019-02-22T00:02:14.890Z,31.75
2019-02-22T00:04:42.882Z,33.30
2019-02-22T00:07:13.774Z,34.75
2019-02-22T00:09:49.297Z,31.05
2019-02-22T00:12:15.451Z,33.60
2019-02-22T00:14:43.894Z,28.42
2019-02-22T00:17:11.939Z,31.00
2019-02-22T00:19:40.102Z,33.80
2019-02-22T00:22:08.219Z,30.50
2019-02-22T00:24:39.936Z,30.43
2019-02-22T00:27:12.884Z,30.05
2019-02-22T00:29:40.857Z,29.12
2019-02-22T00:32:09.985Z,29.50
2019-02-22T00:34:37.984Z,27.02
2019-02-22T00:37:06.474Z,27.55
2019-02-22T00:39:36.866Z,28.57
2019-02-22T00:42:06.222Z,28.00
2019-02-22T00:44:38.123Z,26.80
2019-02-22T00:47:06.206Z,32.95
2019-02-22T00:49:36.875Z,30.10
2019-02-22T00:52:05.065Z,30.32
2019-02-22T00:54:33.026Z,32.73
2019-02-22T00:57:03.318Z,30.65
2019-02-22T00:59:31.358Z,30.68
2019-02-22T01:01:59.285Z,28.47
2019-02-22T01:04:27.230Z,30.45
2019-02-22T01:06:56.926Z,34.50
2019-02-22T01:09:26.720Z,29.75
2019-02-22T01:11:56.886Z,28.30
2019-02-22T01:14:25.876Z,29.23
2019-02-22T01:16:57.252Z,28.92
2019-02-22T01:19:24.789Z,30.08
2019-02-22T01:21:53.111Z,30.92
2019-02-22T01:24:21.085Z,31.30
2019-02-22T01:26:49.078Z,31.77
2019-02-22T01:29:17.109Z,32.58
2019-02-22T01:31:45.554Z,31.48
2019-02-22T01:34:13.575Z,30.30
2019-02-22T01:36:41.919Z,34.10
2019-02-22T01:39:09.971Z,33.28
2019-02-22T01:41:39.347Z,32.23
2019-02-22T01:44:17.966Z,30.82
2019-02-22T01:46:46.027Z,31.87
2019-02-22T01:49:15.808Z,30.37
2019-02-22T01:51:44.079Z,30.45
2019-02-22T01:54:13.987Z,32.15
2019-02-22T01:56:41.978Z,34.30
2019-02-22T01:59:09.903Z,29.45
2019-02-22T02:01:42.793Z,31.48
2019-02-22T02:04:12.594Z,29.90
2019-02-22T02:06:40.982Z,30.68
2019-02-22T02:09:12.431Z,30.25
2019-02-22T02:11:40.959Z,28.60
2019-02-22T02:14:10.911Z,30.85
2019-02-22T02:16:40.445Z,26.97
2019-02-22T02:19:09.426Z,28.65
2019-02-22T02:21:38.512Z,26.23
2019-02-22T02:24:06.604Z,27.10
2019-02-22T02:26:36.598Z,25.60
2019-02-22T02:29:04.708Z,30.10
2019-02-22T02:31:34.740Z,26.95
2019-02-22T02:34:02.836Z,26.60
2019-02-22T02:36:33.274Z,28.32
2019-02-22T02:39:01.259Z,30.50
2019-02-22T02:41:29.199Z,28.45
2019-02-22T02:43:57.107Z,28.55
2019-02-22T02:46:25.110Z,29.25
2019-02-22T02:48:53.102Z,28.92
2019-02-22T02:51:22.819Z,29.18
2019-02-22T02:53:50.742Z,28.05
2019-02-22T02:56:18.743Z,28.27
2019-02-22T02:58:46.772Z,27.98
2019-02-22T03:01:14.750Z,28.98
2019-02-22T03:03:44.517Z,26.77
2019-02-22T03:06:23.259Z,28.52
2019-02-22T03:08:51.458Z,27.62
2019-02-22T03:11:21.091Z,29.52
2019-02-22T03:13:49.074Z,27.58
2019-02-22T03:16:17.071Z,25.55
2019-02-22T03:18:45.550Z,28.15
2019-02-22T03:21:19.845Z,27.52
2019-02-22T03:23:47.814Z,28.02
2019-02-22T03:26:15.759Z,29.65
2019-02-22T03:28:44.802Z,30.88
2019-02-22T03:31:12.795Z,29.10
2019-02-22T03:33:40.819Z,31.15
2019-02-22T03:36:08.856Z,31.05
2019-02-22T03:38:37.997Z,30.43
2019-02-22T03:41:06.412Z,33.02
2019-02-22T03:43:34.368Z,31.02
2019-02-22T03:46:03.614Z,31.57
2019-02-22T03:48:31.982Z,28.35
2019-02-22T03:51:01.982Z,29.20
2019-02-22T03:53:40.345Z,27.93
2019-02-22T03:56:08.291Z,29.98
2019-02-22T03:58:36.278Z,27.70
2019-02-22T04:01:04.227Z,27.85
2019-02-22T04:03:32.141Z,28.60
2019-02-22T04:06:02.361Z,29.57
2019-02-22T04:08:30.308Z,27.87
2019-02-22T04:10:58.229Z,33.05
2019-02-22T04:13:26.455Z,30.43
2019-02-22T04:15:56.344Z,32.45
2019-02-22T04:18:24.497Z,31.42
2019-02-22T04:20:52.490Z,30.95
2019-02-22T04:23:21.573Z,32.25
2019-02-22T04:25:49.611Z,30.70
2019-02-22T04:28:17.738Z,31.57
2019-02-22T04:30:46.319Z,29.80
2019-02-22T04:33:15.790Z,30.62
2019-02-22T04:35:44.401Z,32.78
2019-02-22T04:38:12.367Z,30.40
2019-02-22T04:40:43.506Z,32.17
2019-02-22T04:43:11.456Z,31.40
2019-02-22T04:45:39.590Z,32.20
2019-02-22T04:48:08.802Z,35.08
2019-02-22T04:50:37.182Z,31.37
2019-02-22T04:53:05.179Z,29.40
2019-02-22T04:55:34.278Z,31.50
2019-02-22T04:58:02.257Z,33.55
2019-02-22T05:00:30.243Z,32.85
2019-02-22T05:02:58.184Z,36.30
2019-02-22T05:05:28.549Z,34.05
2019-02-22T05:07:57.214Z,31.85
2019-02-22T05:10:25.237Z,30.90
2019-02-22T05:12:53.313Z,31.10
2019-02-22T05:15:21.762Z,32.93
2019-02-22T05:17:49.715Z,38.75
2019-02-22T05:20:22.289Z,31.05
2019-02-22T05:22:50.366Z,34.45
2019-02-22T05:25:18.353Z,33.30
2019-02-22T05:27:46.340Z,35.08
2019-02-22T05:30:14.271Z,35.08
2019-02-22T05:32:45.044Z,34.75
2019-02-22T05:35:16.118Z,32.00
2019-02-22T05:37:44.153Z,32.90
2019-02-22T05:40:12.117Z,33.20
2019-02-22T05:42:40.032Z,35.95
2019-02-22T05:45:09.981Z,35.05
2019-02-22T05:47:38.170Z,33.85
2019-02-22T05:50:06.630Z,32.10
2019-02-22T05:52:34.753Z,32.67
2019-02-22T05:55:02.758Z,34.63
2019-02-22T05:57:31.283Z,34.38
2019-02-22T06:00:00.427Z,31.35
2019-02-22T06:02:28.461Z,35.63
2019-02-22T06:04:59.262Z,35.38
2019-02-22T06:07:27.347Z,34.60
2019-02-22T06:09:55.240Z,34.25
2019-02-22T06:12:33.901Z,35.00
2019-02-22T06:14:53.207Z,35.38
2019-02-22T06:17:21.117Z,33.95
2019-02-22T06:19:49.547Z,36.93
2019-02-22T06:22:29.143Z,34.23
2019-02-22T06:24:48.687Z,33.98
2019-02-22T06:27:16.566Z,35.45
2019-02-22T06:29:44.526Z,31.12
2019-02-22T06:32:13.366Z,31.70
2019-02-22T06:34:43.825Z,34.13
2019-02-22T06:37:11.792Z,31.50
2019-02-22T06:39:40.321Z,33.67
2019-02-22T06:42:09.721Z,33.65
2019-02-22T06:44:37.819Z,36.45
2019-02-22T06:47:06.331Z,33.20
2019-02-22T06:49:34.267Z,39.33
2019-02-22T06:52:02.315Z,35.63
2019-02-22T06:54:30.953Z,36.58
2019-02-22T06:57:07.279Z,38.33
2019-02-22T06:59:35.307Z,36.45
2019-02-22T07:02:03.262Z,36.80
2019-02-22T07:04:31.592Z,33.63
2019-02-22T07:07:02.673Z,36.05
2019-02-22T07:09:31.081Z,34.83
2019-02-22T07:12:22.053Z,36.55
2019-02-22T07:14:50.315Z,31.57
2019-02-22T07:17:18.172Z,35.88
2019-02-22T07:19:46.092Z,34.10
2019-02-22T07:22:14.025Z,36.83
2019-02-22T07:24:41.891Z,35.70
2019-02-22T07:27:10.091Z,36.68
2019-02-22T07:29:38.019Z,36.28
2019-02-22T07:32:06.504Z,34.60
2019-02-22T07:34:34.829Z,36.65
2019-02-22T07:37:02.796Z,38.17
2019-02-22T07:39:30.628Z,37.17
2019-02-22T07:41:58.502Z,37.45
2019-02-22T07:44:26.365Z,37.42
2019-02-22T07:46:54.263Z,36.23
2019-02-22T07:49:23.230Z,39.58
2019-02-22T07:51:51.085Z,39.35
2019-02-22T07:54:18.938Z,39.83
2019-02-22T07:56:46.810Z,38.17
2019-02-22T07:59:14.640Z,38.23
2019-02-22T08:01:47.269Z,41.37
2019-02-22T08:04:14.899Z,41.02
2019-02-22T08:06:42.766Z,37.42
2019-02-22T08:09:10.758Z,38.60
2019-02-22T08:11:38.891Z,39.25
2019-02-22T08:14:07.937Z,36.40
2019-02-22T08:16:36.090Z,35.35
2019-02-22T08:19:03.950Z,40.67
2019-02-22T08:21:31.871Z,37.15
2019-02-22T08:23:59.729Z,34.80
2019-02-22T08:26:27.790Z,40.08
2019-02-22T08:28:55.799Z,36.88
2019-02-22T08:31:23.666Z,38.45
2019-02-22T08:33:51.577Z,39.88
2019-02-22T08:36:19.418Z,40.25
2019-02-22T08:38:47.291Z,41.60
2019-02-22T08:41:15.138Z,38.55
2019-02-22T08:43:43.281Z,36.50
2019-02-22T08:46:11.230Z,39.67
2019-02-22T08:48:39.109Z,36.20
2019-02-22T08:51:06.926Z,39.05
2019-02-22T08:53:34.830Z,38.65
2019-02-22T08:56:02.677Z,35.73
2019-02-22T08:58:30.533Z,33.40
2019-02-22T09:00:58.380Z,32.17
2019-02-22T09:03:26.315Z,31.55
2019-02-22T09:05:54.165Z,32.80
2019-02-22T09:08:22.054Z,30.85
2019-02-22T09:11:00.216Z,32.88
2019-02-22T09:13:19.537Z,33.10
2019-02-22T09:15:47.535Z,41.77
2019-02-22T09:18:15.452Z,33.60
2019-02-22T09:20:43.331Z,33.53
2019-02-22T09:23:11.279Z,31.68
2019-02-22T09:25:39.140Z,33.63
2019-02-22T09:28:07.039Z,33.08
2019-02-22T09:30:35.005Z,32.17
2019-02-22T09:33:02.859Z,33.02
2019-02-22T09:35:30.723Z,32.70
2019-02-22T09:37:58.767Z,31.25
2019-02-22T09:40:26.647Z,31.52
2019-02-22T09:42:54.521Z,30.32
2019-02-22T09:45:24.386Z,29.10
2019-02-22T09:47:52.150Z,27.20
2019-02-22T09:50:20.100Z,28.12
2019-02-22T09:52:48.514Z,30.05
2019-02-22T09:55:16.366Z,31.23
2019-02-22T09:57:44.273Z,27.70
2019-02-22T10:00:12.366Z,27.65
2019-02-22T10:02:40.278Z,28.12
2019-02-22T10:05:08.537Z,27.40
2019-02-22T10:07:36.443Z,27.40
2019-02-22T10:10:04.702Z,27.02
2019-02-22T10:12:32.562Z,28.95
2019-02-22T10:15:00.433Z,28.05
2019-02-22T10:17:28.370Z,26.20
2019-02-22T10:19:56.215Z,25.08
2019-02-22T10:22:24.286Z,26.70
2019-02-22T10:24:52.146Z,27.10
2019-02-22T10:27:20.049Z,24.27
2019-02-22T10:29:47.915Z,25.12
2019-02-22T10:32:16.050Z,24.90
2019-02-22T10:34:44.030Z,25.00
2019-02-22T10:37:11.915Z,24.30
2019-02-22T10:39:39.775Z,24.35
2019-02-22T10:42:07.653Z,25.48
2019-02-22T10:44:35.522Z,28.20
2019-02-22T10:47:03.374Z,25.65
2019-02-22T10:49:31.202Z,25.80
2019-02-22T10:51:59.106Z,23.35
2019-02-22T10:54:26.970Z,25.00
2019-02-22T10:56:55.015Z,25.88
2019-02-22T10:59:22.921Z,25.08
2019-02-22T11:01:50.766Z,23.00
2019-02-22T11:04:18.778Z,22.35
2019-02-22T11:06:46.613Z,20.35
2019-02-22T11:09:16.903Z,22.15
2019-02-22T11:11:44.739Z,20.35
2019-02-22T11:14:12.592Z,22.45
2019-02-22T11:16:40.419Z,20.80
2019-02-22T11:19:08.325Z,21.50
2019-02-22T11:21:36.194Z,21.23
2019-02-22T11:24:04.076Z,20.10
2019-02-22T11:26:31.933Z,20.08
2019-02-22T11:28:59.805Z,21.12
2019-02-22T11:31:27.652Z,20.02
2019-02-22T11:33:55.733Z,21.65
2019-02-22T11:36:23.684Z,24.47
2019-02-22T11:38:51.613Z,22.87
2019-02-22T11:41:19.477Z,21.17
2019-02-22T11:43:47.321Z,20.85
2019-02-22T11:46:15.214Z,21.35
2019-02-22T11:48:43.068Z,21.20
2019-02-22T11:51:10.972Z,21.02
2019-02-22T11:53:38.858Z,21.97
2019-02-22T11:56:06.858Z,21.05
2019-02-22T11:58:34.713Z,20.77
2019-02-22T12:01:02.718Z,20.82
2019-02-22T12:03:30.603Z,22.15
2019-02-22T12:05:58.748Z,21.90
2019-02-22T12:08:26.685Z,22.77
2019-02-22T12:10:54.695Z,21.20
2019-02-22T12:13:22.591Z,23.92
2019-02-22T12:15:50.564Z,22.52
2019-02-22T12:18:19.744Z,22.80
2019-02-22T12:20:47.644Z,24.27
2019-02-22T12:23:15.574Z,24.35
2019-02-22T12:25:44.619Z,23.52
2019-02-22T12:28:12.561Z,21.87
2019-02-22T12:30:40.434Z,22.40
2019-02-22T12:33:08.342Z,21.77
2019-02-22T12:35:36.175Z,20.80
2019-02-22T12:38:04.097Z,21.30
2019-02-22T12:40:32.010Z,22.27
2019-02-22T12:42:59.990Z,22.00
2019-02-22T12:45:27.876Z,20.43
2019-02-22T12:47:55.807Z,21.45
2019-02-22T12:50:23.676Z,20.30
2019-02-22T12:52:51.555Z,18.30
2019-02-22T12:55:19.495Z,18.98
2019-02-22T12:57:47.454Z,22.17
2019-02-22T13:00:15.411Z,20.75
2019-02-22T13:02:43.277Z,20.65
2019-02-22T13:05:12.231Z,20.50
2019-02-22T13:07:40.104Z,21.02
2019-02-22T13:10:08.556Z,18.35
2019-02-22T13:12:36.477Z,20.45
2019-02-22T13:15:13.553Z,19.27
2019-02-22T13:17:34.542Z,20.32
2019-02-22T13:20:02.470Z,20.30
2019-02-22T13:22:30.413Z,20.02
2019-02-22T13:24:58.383Z,19.45
2019-02-22T13:27:27.404Z,17.37
2019-02-22T13:29:55.374Z,18.82
2019-02-22T13:32:23.237Z,17.37
2019-02-22T13:34:51.129Z,19.30
2019-02-22T13:37:19.173Z,17.15
2019-02-22T13:39:47.057Z,17.37
2019-02-22T13:42:14.954Z,16.20
2019-02-22T13:44:42.835Z,16.45
2019-02-22T13:47:10.665Z,15.98
2019-02-22T13:49:38.729Z,15.55
2019-02-22T13:52:06.836Z,15.48
2019-02-22T13:54:34.760Z,16.85
2019-02-22T13:57:02.815Z,19.25
2019-02-22T13:59:31.543Z,16.45
2019-02-22T14:01:59.398Z,16.35
2019-02-22T14:04:27.327Z,16.77
2019-02-22T14:06:55.166Z,19.82
2019-02-22T14:12:35.606Z,18.20
2019-02-22T14:15:03.542Z,19.75
2019-02-22T14:17:31.407Z,18.25
2019-02-22T14:19:59.248Z,19.25
2019-02-22T14:22:27.118Z,19.40
2019-02-22T14:24:54.980Z,21.23
2019-02-22T14:27:53.334Z,20.05
2019-02-22T14:30:21.248Z,21.50
2019-02-22T14:32:49.136Z,20.75
2019-02-22T14:35:17.075Z,19.85
2019-02-22T14:37:55.703Z,20.23
2019-02-22T14:40:25.674Z,18.40
2019-02-22T14:42:55.340Z,19.35
2019-02-22T14:45:23.213Z,18.80
2019-02-22T14:47:51.786Z,19.90
2019-02-22T14:50:19.696Z,19.23
2019-02-22T14:52:47.598Z,16.10
2019-02-22T14:55:15.750Z,17.60
2019-02-22T14:57:45.212Z,18.37
2019-02-22T15:00:14.567Z,17.95
2019-02-22T15:02:43.052Z,17.95
2019-02-22T15:05:12.424Z,16.05
2019-02-22T15:07:40.941Z,17.05
2019-02-22T15:10:08.913Z,17.12
2019-02-22T15:12:36.830Z,15.43
2019-02-22T15:15:05.135Z,17.30
2019-02-22T15:17:41.139Z,17.48
2019-02-22T15:20:09.088Z,16.12
2019-02-22T15:22:37.092Z,16.67
2019-02-22T15:25:05.763Z,15.35
2019-02-22T15:27:36.183Z,16.05
2019-02-22T15:30:03.389Z,18.40
2019-02-22T15:32:31.415Z,18.42
2019-02-22T15:34:59.268Z,14.50
2019-02-22T15:37:27.205Z,17.35
2019-02-22T15:39:55.103Z,16.07
2019-02-22T15:42:22.990Z,15.63
2019-02-22T15:44:50.875Z,15.53
2019-02-22T15:47:18.793Z,15.03
2019-02-22T15:49:48.937Z,14.10
2019-02-22T15:52:16.731Z,14.47
2019-02-22T15:54:44.606Z,11.25
2019-02-22T15:57:12.455Z,12.33
2019-02-22T15:59:40.319Z,12.05
2019-02-22T16:02:08.202Z,11.03
2019-02-22T16:04:55.201Z,11.28
2019-02-22T16:07:23.053Z,11.90
2019-02-22T16:09:50.927Z,10.20
2019-02-22T16:12:18.864Z,11.28
2019-02-22T16:14:47.066Z,11.33
2019-02-22T16:17:15.022Z,11.25
2019-02-22T16:19:42.924Z,8.83
2019-02-22T16:22:10.779Z,10.60
2019-02-22T16:24:38.730Z,11.10
2019-02-22T16:27:06.600Z,10.48
2019-02-22T16:29:34.489Z,9.45
2019-02-22T16:32:02.907Z,9.75
2019-02-22T16:34:30.870Z,9.50
2019-02-22T16:36:58.798Z,9.68
2019-02-22T16:39:26.731Z,10.30
2019-02-22T16:41:54.621Z,10.32
2019-02-22T16:44:22.490Z,9.63
2019-02-22T16:46:50.520Z,10.40
2019-02-22T16:49:18.569Z,8.63
2019-02-22T16:51:46.521Z,9.25
2019-02-22T16:54:14.392Z,8.58
2019-02-22T16:56:42.253Z,7.12
2019-02-22T16:59:10.085Z,8.35
2019-02-22T17:01:38.007Z,7.55
2019-02-22T17:04:06.003Z,7.95
2019-02-22T17:06:33.928Z,7.67
2019-02-22T17:09:01.810Z,8.08
2019-02-22T17:11:29.765Z,8.65
2019-02-22T17:13:57.675Z,9.23
2019-02-22T17:16:25.580Z,8.93
2019-02-22T17:18:53.522Z,8.90
2019-02-22T17:21:21.682Z,8.53
2019-02-22T17:23:49.605Z,8.28
2019-02-22T17:26:17.519Z,7.87
2019-02-22T17:28:45.510Z,7.60
2019-02-22T17:31:13.427Z,8.03
2019-02-22T17:33:41.311Z,6.97
2019-02-22T17:36:09.246Z,6.08
2019-02-22T17:38:37.115Z,6.80
2019-02-22T17:41:04.959Z,7.20
2019-02-22T17:43:32.850Z,7.22
2019-02-22T17:46:00.710Z,8.48
2019-02-22T17:48:28.592Z,8.25
2019-02-22T17:50:56.420Z,7.47
2019-02-22T17:53:24.538Z,7.65
2019-02-22T17:55:52.423Z,8.58
2019-02-22T17:58:24.292Z,6.85
2019-02-22T18:00:50.179Z,7.85
2019-02-22T18:03:18.164Z,7.28
2019-02-22T18:05:46.013Z,7.25
2019-02-22T18:08:13.932Z,8.20
2019-02-22T18:10:41.752Z,9.38
2019-02-22T18:13:09.647Z,8.50
2019-02-22T18:15:37.506Z,12.93
2019-02-22T18:18:05.393Z,9.85
2019-02-22T18:20:33.265Z,9.28
2019-02-22T18:23:01.174Z,8.73
2019-02-22T18:25:29.330Z,9.03
2019-02-22T18:27:57.333Z,10.35
2019-02-22T18:30:25.357Z,9.88
2019-02-22T18:32:59.104Z,9.58
2019-02-22T18:35:27.223Z,9.73
2019-02-22T18:37:55.214Z,10.55
2019-02-22T18:40:24.448Z,9.95
2019-02-22T18:42:52.377Z,8.33
2019-02-22T18:45:20.602Z,9.28
2019-02-22T18:47:48.816Z,8.85
2019-02-22T18:50:16.797Z,10.70
2019-02-22T18:52:44.727Z,9.90
2019-02-22T18:55:15.633Z,9.80
2019-02-22T18:57:44.007Z,9.80
2019-02-22T19:00:13.482Z,8.40
2019-02-22T19:02:42.524Z,9.50
2019-02-22T19:05:10.412Z,9.20
2019-02-22T19:07:42.698Z,8.33
2019-02-22T19:10:10.982Z,9.25
2019-02-22T19:12:39.232Z,9.18
2019-02-22T19:15:09.927Z,10.03
2019-02-22T19:17:42.160Z,9.65
2019-02-22T19:20:11.088Z,10.40
2019-02-22T19:22:39.124Z,10.20
2019-02-22T19:25:09.716Z,10.80
2019-02-22T19:27:46.574Z,9.55
2019-02-22T19:30:15.552Z,10.18
2019-02-22T19:32:43.560Z,9.35
2019-02-22T19:35:11.560Z,10.45
2019-02-22T19:37:40.192Z,9.68
2019-02-22T19:40:10.306Z,9.50
2019-02-22T19:42:39.457Z,9.50
2019-02-22T19:45:07.943Z,9.00
2019-02-22T19:47:51.284Z,10.58
2019-02-22T19:50:19.233Z,10.55
2019-02-22T19:52:51.867Z,10.03
2019-02-22T19:55:19.809Z,9.90
2019-02-22T19:57:48.325Z,9.53
2019-02-22T20:00:18.450Z,9.25
2019-02-22T20:02:46.511Z,10.48
2019-02-22T20:05:15.917Z,11.10
2019-02-22T20:07:43.906Z,10.85
2019-02-22T20:10:18.013Z,11.22
2019-02-22T20:12:44.525Z,11.73
2019-02-22T20:15:13.307Z,9.80
2019-02-22T20:17:52.618Z,11.75
2019-02-22T20:20:11.924Z,10.95
2019-02-22T20:22:40.052Z,11.22
2019-02-22T20:25:08.181Z,11.38
2019-02-22T20:27:36.249Z,13.18
2019-02-22T20:30:04.702Z,10.53
2019-02-22T20:32:32.753Z,13.00
2019-02-22T20:35:02.443Z,14.50
2019-02-22T20:37:30.382Z,11.83
2019-02-22T20:39:58.393Z,13.00
2019-02-22T20:42:26.312Z,11.43
2019-02-22T20:44:54.339Z,12.10
2019-02-22T20:47:23.815Z,12.03
2019-02-22T20:49:54.436Z,10.65
2019-02-22T20:52:22.536Z,14.00
2019-02-22T20:54:50.557Z,13.13
2019-02-22T20:57:18.474Z,14.05
2019-02-22T20:59:46.521Z,13.72
2019-02-22T21:02:14.898Z,14.43
2019-02-22T21:04:43.142Z,14.90
2019-02-22T21:07:12.270Z,13.43
2019-02-22T21:09:41.822Z,14.35
2019-02-22T21:12:10.390Z,14.38
2019-02-22T21:14:38.580Z,13.05
2019-02-22T21:17:07.609Z,14.40
2019-02-22T21:19:35.748Z,13.18
2019-02-22T21:22:03.814Z,14.70
2019-02-22T21:24:31.842Z,15.90
2019-02-22T21:27:00.159Z,16.57
2019-02-22T21:29:29.115Z,17.07
2019-02-22T21:31:57.799Z,19.15
2019-02-22T21:34:25.772Z,16.82
2019-02-22T21:36:54.122Z,15.63
2019-02-22T21:39:21.973Z,17.85
2019-02-22T21:41:49.991Z,16.12
2019-02-22T21:44:17.894Z,16.93
2019-02-22T21:46:45.812Z,15.78
2019-02-22T21:49:13.713Z,16.40
2019-02-22T21:51:41.624Z,16.12
2019-02-22T21:54:10.514Z,16.25
2019-02-22T21:56:39.907Z,16.00
2019-02-22T21:59:08.388Z,16.67
2019-02-22T22:01:36.469Z,17.85
2019-02-22T22:04:06.024Z,16.40
2019-02-22T22:06:35.090Z,16.10
2019-02-22T22:09:03.131Z,15.80
2019-02-22T22:11:31.374Z,16.65
2019-02-22T22:13:59.378Z,14.83
2019-02-22T22:16:27.519Z,18.40
2019-02-22T22:18:55.515Z,15.83
2019-02-22T22:21:23.509Z,15.30
2019-02-22T22:23:52.526Z,14.93
2019-02-22T22:26:20.432Z,16.55
2019-02-22T22:28:48.447Z,16.90
2019-02-22T22:31:16.828Z,17.30
2019-02-22T22:33:46.022Z,15.53
2019-02-22T22:36:14.049Z,15.60
2019-02-22T22:38:46.686Z,16.40
2019-02-22T22:41:14.586Z,17.37
2019-02-22T22:43:44.799Z,16.85
2019-02-22T22:46:13.828Z,16.02
2019-02-22T22:48:50.187Z,15.72
2019-02-22T22:51:11.380Z,14.95
2019-02-22T22:53:39.665Z,16.52
2019-02-22T22:56:08.661Z,16.60
2019-02-22T22:58:36.658Z,15.80
2019-02-22T23:01:13.801Z,15.40
2019-02-22T23:03:41.754Z,16.05
2019-02-22T23:06:10.458Z,16.07
2019-02-22T23:08:38.607Z,16.17
2019-02-22T23:11:06.526Z,16.40
2019-02-22T23:13:35.538Z,16.27
2019-02-22T23:16:03.762Z,16.05
2019-02-22T23:18:32.041Z,15.60
2019-02-22T23:21:02.459Z,15.32
2019-02-22T23:23:32.336Z,15.00
2019-02-22T23:26:01.402Z,16.35
2019-02-22T23:28:34.349Z,15.48
2019-02-22T23:31:02.396Z,16.07
2019-02-22T23:33:30.386Z,14.33
2019-02-22T23:36:00.411Z,15.78
2019-02-22T23:38:28.765Z,14.60
2019-02-22T23:40:57.082Z,14.23
2019-02-22T23:43:25.097Z,15.65
2019-02-22T23:45:53.394Z,15.18
2019-02-22T23:48:28.678Z,13.90
2019-02-22T23:50:56.621Z,15.28
2019-02-22T23:53:24.604Z,14.45
2019-02-22T23:55:52.818Z,15.05
2019-02-22T23:58:20.716Z,15.72
